Search for airport 
image banner adimage banner adimage banner ad
image banner ad

CL17 - Barstow Community Hospital

Located in Barstow, United States

ICAO - CL17, IATA -

Data provided by Airmate  

General information

Coordinates: N34°53'33" W117°1'4"
Elevation is 2255 feet MSL.
Magnetic variation is 14° East
View others Airports in California

Operational data

Special qualification required
Current time UTC:
Current local time:
Weather at : KDAG - Barstow-Daggett ( 22 km )
METAR: KDAG 210850Z AUTO 24018G26KT 10SM CLR 32/01 A2981 RMK AO2 PK WND 25026/0843 SLP059 T03220006 56001 $
TAF: KDAG 210520Z 2106/2206 26017G25KT P6SM SKC FM211700 27023G34KT P6SM SKC FM220300 25017G25KT P6SM SKC
View NOTAMs / SUP AIP / TFR affecting this airport [VIEW]
Communications frequencies: [VIEW]

Runways:

Airport contact information

Address: Barstow United States

Satellite view of CL17